Time;durP1;ratioP1;P1;durP2;ratioP2;P2;SDS_P1;SDS_P2;PMS_P1;PMS_P2;Temp;Humidity;BMP_temperature;BMP_pressure;BME280_temperature;BME280_humidity;BME280_pressure;Samples;Min_cycle;Max_cycle;Signal;HPM_P1;HPM_P2
2021/10/10 00:01:04;;;;;;;17.10;11.00;;;8.80;99.90;;;;;;5117954;28;20823;-69
2021/10/10 00:03:31;;;;;;;15.00;11.03;;;8.80;99.90;;;;;;5117808;28;20900;-69
2021/10/10 00:05:57;;;;;;;15.30;11.73;;;8.80;99.90;;;;;;5118294;28;20461;-69
2021/10/10 00:08:25;;;;;;;17.00;11.47;;;8.80;99.90;;;;;;5118341;28;20479;-69
2021/10/10 00:10:52;;;;;;;17.97;12.13;;;8.80;99.90;;;;;;5118198;28;20468;-69
2021/10/10 00:13:19;;;;;;;14.20;10.90;;;8.70;99.90;;;;;;5117834;28;20464;-69
2021/10/10 00:15:46;;;;;;;16.70;12.20;;;8.70;99.90;;;;;;5118041;28;20464;-70
2021/10/10 00:18:13;;;;;;;16.43;12.07;;;8.70;99.90;;;;;;5117787;28;20452;-69
2021/10/10 00:20:39;;;;;;;16.80;11.73;;;8.70;99.90;;;;;;5117158;28;20578;-69
2021/10/10 00:23:06;;;;;;;14.83;10.80;;;8.60;99.90;;;;;;5117620;28;20460;-69
2021/10/10 00:25:34;;;;;;;18.87;12.00;;;8.60;99.90;;;;;;5117779;28;20842;-69
2021/10/10 00:28:01;;;;;;;15.10;11.47;;;8.60;99.90;;;;;;5117518;28;20754;-69
2021/10/10 00:30:28;;;;;;;16.60;11.70;;;8.60;99.90;;;;;;5117727;28;20791;-69
2021/10/10 00:32:56;;;;;;;13.93;12.07;;;8.60;99.90;;;;;;5117499;28;20461;-69
2021/10/10 00:35:22;;;;;;;15.83;11.87;;;8.60;99.90;;;;;;5117279;28;20466;-69
2021/10/10 00:37:49;;;;;;;15.87;11.40;;;8.60;99.90;;;;;;5117829;28;20453;-69
2021/10/10 00:40:16;;;;;;;14.53;10.63;;;8.60;99.90;;;;;;5117286;28;20532;-69
2021/10/10 00:42:44;;;;;;;14.47;11.50;;;8.60;99.90;;;;;;5117540;28;20920;-70
2021/10/10 00:45:10;;;;;;;18.50;12.73;;;8.60;99.90;;;;;;5117303;28;20454;-69
2021/10/10 00:47:38;;;;;;;15.30;12.23;;;8.60;99.90;;;;;;5117491;28;20453;-69
2021/10/10 00:50:06;;;;;;;15.53;12.00;;;8.50;99.90;;;;;;5116889;28;20483;-69
2021/10/10 00:52:35;;;;;;;15.07;12.07;;;8.50;99.90;;;;;;5118647;28;20464;-69
2021/10/10 00:55:03;;;;;;;14.90;11.43;;;8.50;99.90;;;;;;5117317;28;20452;-69
2021/10/10 00:57:31;;;;;;;15.90;11.53;;;8.50;99.90;;;;;;5117362;28;20459;-69
2021/10/10 01:00:00;;;;;;;15.93;12.07;;;8.50;99.90;;;;;;5117108;28;20457;-69
2021/10/10 01:02:27;;;;;;;21.67;12.30;;;8.50;99.90;;;;;;5116718;28;20541;-69
2021/10/10 01:04:53;;;;;;;15.93;11.90;;;8.50;99.90;;;;;;5117044;28;20460;-69
2021/10/10 01:07:21;;;;;;;19.33;11.63;;;8.50;99.90;;;;;;5116934;28;20457;-69
2021/10/10 01:09:48;;;;;;;16.03;12.33;;;8.50;99.90;;;;;;5116724;28;20535;-69
2021/10/10 01:12:15;;;;;;;20.30;12.00;;;8.40;99.90;;;;;;5116382;28;20463;-70
2021/10/10 01:14:41;;;;;;;19.20;12.17;;;8.40;99.90;;;;;;5116811;28;20547;-69
2021/10/10 01:17:10;;;;;;;15.40;10.77;;;8.40;99.90;;;;;;5116596;28;20551;-69
2021/10/10 01:19:39;;;;;;;16.00;11.43;;;8.40;99.90;;;;;;5116652;28;20464;-69
2021/10/10 01:22:07;;;;;;;16.40;12.20;;;8.40;99.90;;;;;;5116487;28;20544;-69
2021/10/10 01:24:34;;;;;;;19.63;12.70;;;8.30;99.90;;;;;;5116950;28;20469;-69
2021/10/10 01:27:01;;;;;;;18.60;12.33;;;8.30;99.90;;;;;;5116397;28;20468;-69
2021/10/10 01:29:30;;;;;;;17.70;11.60;;;8.30;99.90;;;;;;5116458;28;20483;-69
2021/10/10 01:31:57;;;;;;;16.27;11.60;;;8.30;99.90;;;;;;5116301;28;20470;-69
2021/10/10 01:34:24;;;;;;;15.60;12.63;;;8.30;99.90;;;;;;5115148;28;20458;-69
2021/10/10 01:36:50;;;;;;;16.27;11.97;;;8.30;99.90;;;;;;5116182;28;20920;-70
2021/10/10 01:39:18;;;;;;;14.80;12.17;;;8.30;99.90;;;;;;5116324;28;20784;-69
2021/10/10 01:41:45;;;;;;;16.30;11.43;;;8.30;99.90;;;;;;5116034;28;20533;-69
2021/10/10 01:44:15;;;;;;;16.73;12.70;;;8.30;99.90;;;;;;5116016;28;20518;-69
2021/10/10 01:46:42;;;;;;;17.83;12.30;;;8.20;99.90;;;;;;5116024;28;20512;-69
2021/10/10 01:49:10;;;;;;;17.97;13.30;;;8.20;99.90;;;;;;5115692;28;20500;-69
2021/10/10 01:51:37;;;;;;;18.20;12.67;;;8.20;99.90;;;;;;5116105;28;20541;-69
2021/10/10 01:54:05;;;;;;;16.73;12.67;;;8.20;99.90;;;;;;5115524;28;20466;-69
2021/10/10 01:56:33;;;;;;;17.50;12.77;;;8.20;99.90;;;;;;5116018;28;20805;-69
2021/10/10 01:59:00;;;;;;;16.53;12.70;;;8.20;99.90;;;;;;5115859;28;20467;-69
2021/10/10 02:01:26;;;;;;;20.13;13.70;;;8.10;99.90;;;;;;5115694;28;20491;-69
2021/10/10 02:03:53;;;;;;;17.47;13.20;;;8.10;99.90;;;;;;5116020;28;20456;-69
2021/10/10 02:06:19;;;;;;;19.70;14.33;;;8.00;99.90;;;;;;5115829;28;20482;-69
2021/10/10 02:08:46;;;;;;;21.43;12.50;;;8.00;99.90;;;;;;5115811;28;20838;-69
2021/10/10 02:11:13;;;;;;;19.57;13.93;;;8.00;99.90;;;;;;5116281;28;20460;-69
2021/10/10 02:13:41;;;;;;;19.00;12.80;;;7.90;99.90;;;;;;5115804;28;20510;-69
2021/10/10 02:16:07;;;;;;;19.13;13.00;;;7.90;99.90;;;;;;5115145;28;20468;-69
2021/10/10 02:18:34;;;;;;;21.80;13.43;;;7.90;99.90;;;;;;5115702;28;20456;-69
2021/10/10 02:21:01;;;;;;;18.60;13.00;;;7.90;99.90;;;;;;5115672;28;20925;-70
2021/10/10 02:23:28;;;;;;;19.10;12.90;;;7.90;99.90;;;;;;5115437;28;20541;-69
2021/10/10 02:25:54;;;;;;;18.23;12.97;;;7.90;99.90;;;;;;5115075;28;20931;-70
2021/10/10 02:28:21;;;;;;;18.60;14.13;;;7.80;99.90;;;;;;5115505;28;20461;-69
2021/10/10 02:30:49;;;;;;;17.03;13.43;;;7.80;99.90;;;;;;5115410;28;20456;-70
2021/10/10 02:33:16;;;;;;;22.80;14.20;;;7.80;99.90;;;;;;5115485;28;20800;-69
2021/10/10 02:35:43;;;;;;;18.07;12.90;;;7.70;99.90;;;;;;5115106;28;20460;-70
2021/10/10 02:38:10;;;;;;;19.80;13.67;;;7.80;99.90;;;;;;5115273;28;20466;-69
2021/10/10 02:40:37;;;;;;;21.10;14.50;;;7.70;99.90;;;;;;5115393;28;20459;-69
2021/10/10 02:43:04;;;;;;;21.50;14.30;;;7.70;99.90;;;;;;5114858;28;20772;-69
2021/10/10 02:45:30;;;;;;;20.93;13.93;;;7.70;99.90;;;;;;5114751;28;20469;-70
2021/10/10 02:47:58;;;;;;;27.73;12.30;;;7.70;99.90;;;;;;5114818;28;20463;-70
2021/10/10 02:50:25;;;;;;;19.40;13.47;;;7.60;99.90;;;;;;5115255;28;20465;-70
2021/10/10 02:52:52;;;;;;;21.60;14.63;;;7.60;99.90;;;;;;5115060;28;20451;-68
2021/10/10 02:55:19;;;;;;;20.87;14.03;;;7.60;99.90;;;;;;5114682;28;20469;-69
2021/10/10 02:57:45;;;;;;;24.03;14.60;;;7.60;99.90;;;;;;5115846;28;20459;-69
2021/10/10 03:00:13;;;;;;;18.43;14.10;;;7.60;99.90;;;;;;5115126;28;20461;-69
2021/10/10 03:02:39;;;;;;;24.10;13.67;;;7.60;99.90;;;;;;5114824;28;20485;-69
2021/10/10 03:05:08;;;;;;;18.97;13.20;;;7.50;99.90;;;;;;5115192;28;20466;-69
2021/10/10 03:07:35;;;;;;;20.20;14.27;;;7.50;99.90;;;;;;5115115;28;20456;-69
2021/10/10 03:10:02;;;;;;;18.20;13.50;;;7.50;99.90;;;;;;5114982;28;20781;-69
2021/10/10 03:12:28;;;;;;;18.97;13.70;;;7.50;99.90;;;;;;5115545;28;20452;-69
2021/10/10 03:14:55;;;;;;;21.23;13.47;;;7.40;99.90;;;;;;5115288;28;20463;-69
2021/10/10 03:17:22;;;;;;;19.27;13.37;;;7.40;99.90;;;;;;5115054;28;20471;-69
2021/10/10 03:19:48;;;;;;;20.13;14.57;;;7.40;99.90;;;;;;5115363;28;20459;-70
2021/10/10 03:22:16;;;;;;;19.40;14.20;;;7.40;99.90;;;;;;5114960;28;20487;-69
2021/10/10 03:24:43;;;;;;;20.10;14.10;;;7.40;99.90;;;;;;5114861;28;20811;-70
2021/10/10 03:27:10;;;;;;;18.27;14.17;;;7.30;99.90;;;;;;5114427;28;20522;-69
2021/10/10 03:29:36;;;;;;;22.57;14.50;;;7.30;99.90;;;;;;5114957;28;20823;-69
2021/10/10 03:32:03;;;;;;;20.70;15.70;;;7.30;99.90;;;;;;5114870;28;20451;-70
2021/10/10 03:34:30;;;;;;;20.60;14.60;;;7.30;99.90;;;;;;5114771;28;20734;-70
2021/10/10 03:36:57;;;;;;;24.40;13.90;;;7.30;99.90;;;;;;5114826;28;20465;-69
2021/10/10 03:39:25;;;;;;;21.90;14.60;;;7.30;99.90;;;;;;5115125;28;20490;-69
2021/10/10 03:41:51;;;;;;;21.70;14.63;;;7.30;99.90;;;;;;5114958;28;20490;-69
2021/10/10 03:44:18;;;;;;;21.07;14.60;;;7.20;99.90;;;;;;5114325;28;20905;-69
2021/10/10 03:46:45;;;;;;;20.97;14.90;;;7.20;99.90;;;;;;5114562;28;20463;-69
2021/10/10 03:49:12;;;;;;;21.90;15.00;;;7.20;99.90;;;;;;5114258;28;20547;-70
2021/10/10 03:51:38;;;;;;;23.90;15.67;;;7.20;99.90;;;;;;5114709;28;20826;-69
2021/10/10 03:54:38;;;;;;;21.83;14.17;;;7.20;99.90;;;;;;5114533;28;20458;-70
2021/10/10 03:57:03;;;;;;;22.63;14.40;;;7.20;99.90;;;;;;5116297;28;20922;-69
2021/10/10 03:59:30;;;;;;;23.03;15.40;;;7.20;99.90;;;;;;5118357;28;20455;-70
2021/10/10 04:02:04;;;;;;;19.60;14.73;;;7.10;99.90;;;;;;5118152;28;20582;-69
2021/10/10 04:04:33;;;;;;;24.53;15.80;;;7.10;99.90;;;;;;5117793;28;20437;-70
2021/10/10 04:06:59;;;;;;;23.40;15.40;;;7.10;99.90;;;;;;5117893;28;20468;-70
2021/10/10 04:09:26;;;;;;;23.87;15.90;;;7.10;99.90;;;;;;5118025;28;20464;-70
2021/10/10 04:11:53;;;;;;;20.50;14.63;;;7.10;99.90;;;;;;5117805;28;20924;-69
2021/10/10 04:14:21;;;;;;;25.90;15.83;;;7.10;99.90;;;;;;5117852;28;20815;-70
2021/10/10 04:16:47;;;;;;;21.43;14.40;;;7.10;99.90;;;;;;5117886;28;20455;-69
2021/10/10 04:19:14;;;;;;;21.83;15.67;;;7.00;99.90;;;;;;5117769;28;20523;-69
2021/10/10 04:21:41;;;;;;;20.67;15.50;;;7.00;99.90;;;;;;5117484;28;20492;-70
2021/10/10 04:24:07;;;;;;;26.80;15.27;;;7.00;99.90;;;;;;5117501;28;20841;-69
2021/10/10 04:26:34;;;;;;;22.03;15.07;;;7.00;99.90;;;;;;5117510;28;20464;-69
2021/10/10 04:29:01;;;;;;;27.70;15.80;;;7.00;99.90;;;;;;5117409;28;20456;-69
2021/10/10 04:31:29;;;;;;;20.77;15.17;;;7.00;99.90;;;;;;5117578;28;20458;-70
2021/10/10 04:33:56;;;;;;;19.10;15.20;;;7.00;99.90;;;;;;5117463;28;20515;-69
2021/10/10 04:36:23;;;;;;;24.27;16.10;;;7.00;99.90;;;;;;5117684;28;20469;-70
2021/10/10 04:38:49;;;;;;;23.23;16.57;;;7.00;99.90;;;;;;5117174;28;20921;-69
2021/10/10 04:41:18;;;;;;;23.33;16.53;;;6.90;99.90;;;;;;5117404;28;20496;-69
2021/10/10 04:43:44;;;;;;;23.10;16.53;;;6.90;99.90;;;;;;5117386;28;20540;-69
2021/10/10 04:46:11;;;;;;;25.30;15.93;;;6.90;99.90;;;;;;5117895;28;20518;-70
2021/10/10 04:48:39;;;;;;;20.97;15.53;;;6.90;99.90;;;;;;5117331;28;20482;-70
2021/10/10 04:51:06;;;;;;;22.47;15.00;;;6.90;99.90;;;;;;5117238;28;20462;-69
2021/10/10 04:53:33;;;;;;;24.07;16.03;;;6.90;99.90;;;;;;5116923;28;20456;-70
2021/10/10 04:55:59;;;;;;;23.00;17.27;;;6.90;99.90;;;;;;5117317;28;20466;-70
2021/10/10 04:58:26;;;;;;;35.53;16.50;;;6.90;99.90;;;;;;5117103;28;20454;-70
2021/10/10 05:00:53;;;;;;;26.43;16.47;;;6.90;99.90;;;;;;5117345;28;20527;-70
2021/10/10 05:03:19;;;;;;;25.53;16.50;;;6.90;99.90;;;;;;5116970;28;20482;-69
2021/10/10 05:05:47;;;;;;;22.87;16.47;;;6.90;99.90;;;;;;5116798;28;20468;-69
2021/10/10 05:08:14;;;;;;;24.90;16.27;;;6.80;99.90;;;;;;5116603;28;20468;-70
2021/10/10 05:10:41;;;;;;;22.87;15.83;;;6.80;99.90;;;;;;5116821;28;20921;-70
2021/10/10 05:13:07;;;;;;;24.60;16.90;;;6.80;99.90;;;;;;5117629;28;20460;-70
2021/10/10 05:15:34;;;;;;;25.37;16.43;;;6.80;99.90;;;;;;5117054;28;20460;-70
2021/10/10 05:18:01;;;;;;;27.93;17.37;;;6.80;99.90;;;;;;5116781;28;20469;-69
2021/10/10 05:20:28;;;;;;;25.00;15.50;;;6.80;99.90;;;;;;5116894;28;20461;-70
2021/10/10 05:22:56;;;;;;;21.57;15.57;;;6.70;99.90;;;;;;5116466;28;20482;-69
2021/10/10 05:25:22;;;;;;;24.10;17.40;;;6.70;99.90;;;;;;5116521;28;20457;-69
2021/10/10 05:27:49;;;;;;;27.07;17.33;;;6.70;99.90;;;;;;5116731;28;20486;-70
2021/10/10 05:30:16;;;;;;;24.13;16.20;;;6.70;99.90;;;;;;5116813;28;20514;-70
2021/10/10 05:32:42;;;;;;;22.53;16.40;;;6.70;99.90;;;;;;5116704;28;20466;-69
2021/10/10 05:35:09;;;;;;;24.10;17.20;;;6.70;99.90;;;;;;5116797;28;20762;-70
2021/10/10 05:37:36;;;;;;;25.00;16.40;;;6.70;99.90;;;;;;5116602;28;20462;-70
2021/10/10 05:40:05;;;;;;;24.37;16.90;;;6.70;99.90;;;;;;5116640;28;20532;-70
2021/10/10 05:42:32;;;;;;;23.67;16.87;;;6.70;99.90;;;;;;5116075;28;20486;-69
2021/10/10 05:44:59;;;;;;;22.47;16.20;;;6.70;99.90;;;;;;5116373;28;20496;-69
2021/10/10 05:47:26;;;;;;;23.50;15.67;;;6.70;99.90;;;;;;5115845;28;20470;-69
2021/10/10 05:49:52;;;;;;;29.90;18.00;;;6.70;99.90;;;;;;5115796;28;20523;-70
2021/10/10 05:52:23;;;;;;;21.10;16.27;;;6.70;99.90;;;;;;5115966;28;20466;-69
2021/10/10 05:54:50;;;;;;;25.77;17.53;;;6.70;99.90;;;;;;5116056;28;20811;-70
2021/10/10 05:57:21;;;;;;;22.50;16.20;;;6.60;99.90;;;;;;5116148;28;20460;-69
2021/10/10 05:59:48;;;;;;;25.97;17.80;;;6.60;99.90;;;;;;5116532;28;20449;-70
2021/10/10 06:02:16;;;;;;;23.60;16.90;;;6.60;99.90;;;;;;5116016;28;20522;-69
2021/10/10 06:04:42;;;;;;;24.80;17.23;;;6.70;99.90;;;;;;5115799;28;20782;-69
2021/10/10 06:07:09;;;;;;;26.23;17.20;;;6.70;99.90;;;;;;5115708;28;20454;-69
2021/10/10 06:09:36;;;;;;;24.60;17.67;;;6.70;99.90;;;;;;5115610;28;20464;-70
2021/10/10 06:12:02;;;;;;;25.33;17.67;;;6.70;99.90;;;;;;5115792;28;20449;-69
2021/10/10 06:14:31;;;;;;;28.80;16.93;;;6.80;99.90;;;;;;5115242;28;20450;-69
2021/10/10 06:16:58;;;;;;;25.70;16.70;;;6.80;99.90;;;;;;5116369;28;20785;-69
2021/10/10 06:19:25;;;;;;;25.20;16.30;;;6.80;99.90;;;;;;5116476;28;20721;-69
2021/10/10 06:21:51;;;;;;;26.30;18.03;;;6.80;99.90;;;;;;5115193;28;20515;-70
2021/10/10 06:24:18;;;;;;;25.87;17.53;;;6.90;99.90;;;;;;5115869;28;20523;-70
2021/10/10 06:26:44;;;;;;;25.00;17.20;;;6.90;99.90;;;;;;5115576;28;20466;-69
2021/10/10 06:29:13;;;;;;;27.50;17.73;;;6.90;99.90;;;;;;5115358;28;20460;-69
2021/10/10 06:31:41;;;;;;;35.50;17.77;;;7.00;99.90;;;;;;5115277;28;20813;-69
2021/10/10 06:34:08;;;;;;;32.93;18.43;;;7.00;99.90;;;;;;5115493;28;20466;-69
2021/10/10 06:36:34;;;;;;;24.70;16.97;;;7.00;99.90;;;;;;5114934;28;20470;-69
2021/10/10 06:39:01;;;;;;;25.30;18.00;;;7.00;99.90;;;;;;5114885;28;20942;-69
2021/10/10 06:41:28;;;;;;;24.97;18.13;;;7.00;99.90;;;;;;5115448;28;20457;-70
2021/10/10 06:43:54;;;;;;;26.50;18.63;;;7.10;99.90;;;;;;5115222;28;20484;-69
2021/10/10 06:46:21;;;;;;;26.67;18.97;;;7.10;99.90;;;;;;5114888;28;20459;-69
2021/10/10 06:48:49;;;;;;;26.87;18.47;;;7.10;99.90;;;;;;5115478;28;20863;-69
2021/10/10 06:51:16;;;;;;;26.57;18.17;;;7.10;99.90;;;;;;5115082;28;20793;-70
2021/10/10 06:53:42;;;;;;;24.93;18.10;;;7.10;99.90;;;;;;5114690;28;20450;-69
2021/10/10 06:56:09;;;;;;;26.90;19.37;;;7.10;99.90;;;;;;5114766;28;20927;-71
2021/10/10 06:58:36;;;;;;;27.20;18.63;;;7.10;99.90;;;;;;5114869;28;20783;-69
2021/10/10 07:01:02;;;;;;;26.47;17.70;;;7.20;99.90;;;;;;5115474;28;20461;-69
2021/10/10 07:03:29;;;;;;;26.00;18.20;;;7.20;99.90;;;;;;5115022;28;20482;-69
2021/10/10 07:05:57;;;;;;;27.03;18.43;;;7.20;99.90;;;;;;5114835;28;20927;-69
2021/10/10 07:08:24;;;;;;;26.33;18.67;;;7.30;99.90;;;;;;5115395;28;20469;-69
2021/10/10 07:10:50;;;;;;;28.97;19.00;;;7.30;99.90;;;;;;5114980;28;20467;-69
2021/10/10 07:13:19;;;;;;;30.40;18.30;;;7.30;99.90;;;;;;5114788;28;20471;-70
2021/10/10 07:15:46;;;;;;;26.33;18.80;;;7.40;99.90;;;;;;5114924;28;20750;-69
2021/10/10 07:18:13;;;;;;;28.90;18.60;;;7.50;99.90;;;;;;5114794;28;20938;-70
2021/10/10 07:20:56;;;;;;;26.00;17.63;;;7.50;99.90;;;;;;5115056;28;20542;-70
2021/10/10 07:23:30;;;;;;;27.50;18.10;;;7.60;99.90;;;;;;5114922;28;20464;-69
2021/10/10 07:25:57;;;;;;;30.80;20.27;;;7.60;99.90;;;;;;5114850;28;20515;-69
2021/10/10 07:28:24;;;;;;;26.70;18.33;;;7.70;99.90;;;;;;5114884;28;20470;-69
2021/10/10 07:30:51;;;;;;;31.07;22.10;;;7.80;99.90;;;;;;5115368;28;20528;-70
2021/10/10 07:33:19;;;;;;;27.13;17.53;;;7.90;99.90;;;;;;5118448;28;20531;-70
2021/10/10 07:35:46;;;;;;;27.63;18.80;;;7.90;99.90;;;;;;5118736;28;20490;-70
2021/10/10 07:38:12;;;;;;;22.77;17.40;;;8.00;99.90;;;;;;5118692;28;20461;-70
2021/10/10 07:40:41;;;;;;;27.07;17.60;;;8.00;99.90;;;;;;5118746;28;20456;-69
2021/10/10 07:43:08;;;;;;;26.30;17.00;;;8.10;99.90;;;;;;5118589;28;20486;-70
2021/10/10 07:45:41;;;;;;;23.40;18.00;;;8.10;99.90;;;;;;5118481;28;20486;-70
2021/10/10 07:48:07;;;;;;;27.40;18.40;;;8.20;99.90;;;;;;5118373;28;20564;-69
2021/10/10 07:50:34;;;;;;;27.00;17.73;;;8.30;99.90;;;;;;5119108;28;20433;-70
2021/10/10 07:53:02;;;;;;;25.53;18.17;;;8.30;99.90;;;;;;5118611;28;20460;-70
2021/10/10 07:55:29;;;;;;;27.83;18.97;;;8.40;99.90;;;;;;5118953;28;20463;-70
2021/10/10 07:57:57;;;;;;;23.03;17.27;;;8.40;99.90;;;;;;5118485;28;20473;-70
2021/10/10 08:00:24;;;;;;;26.13;17.70;;;8.50;99.90;;;;;;5118636;28;20453;-70
2021/10/10 08:02:52;;;;;;;23.27;16.67;;;8.50;99.90;;;;;;5118195;28;20467;-70
2021/10/10 08:05:20;;;;;;;21.93;15.73;;;8.60;99.90;;;;;;5118552;28;20467;-70
2021/10/10 08:07:47;;;;;;;23.50;17.47;;;8.60;99.90;;;;;;5118589;28;20461;-70
2021/10/10 08:10:14;;;;;;;24.57;16.90;;;8.70;99.90;;;;;;5118256;28;20461;-69
2021/10/10 08:12:41;;;;;;;26.90;17.77;;;8.80;99.90;;;;;;5118184;28;20464;-69
2021/10/10 08:15:10;;;;;;;21.93;16.87;;;8.90;99.90;;;;;;5117822;28;20834;-69
2021/10/10 08:17:37;;;;;;;24.50;16.73;;;9.00;99.90;;;;;;5117843;28;20460;-69
2021/10/10 08:20:05;;;;;;;19.97;16.47;;;9.00;99.90;;;;;;5117749;28;20515;-69
2021/10/10 08:22:34;;;;;;;22.67;16.87;;;9.10;99.90;;;;;;5118175;28;20767;-69
2021/10/10 08:25:04;;;;;;;22.30;15.07;;;9.20;99.90;;;;;;5117545;28;20514;-69
2021/10/10 08:27:31;;;;;;;23.57;16.40;;;9.20;99.90;;;;;;5117896;28;20453;-69
2021/10/10 08:29:57;;;;;;;20.50;15.23;;;9.30;99.90;;;;;;5117521;28;20460;-70
2021/10/10 08:32:25;;;;;;;25.93;15.33;;;9.40;99.90;;;;;;5118076;28;20471;-69
2021/10/10 08:34:52;;;;;;;24.73;16.10;;;9.40;99.90;;;;;;5117369;28;20518;-69
2021/10/10 08:37:20;;;;;;;18.70;13.93;;;9.50;99.90;;;;;;5117206;28;20477;-69
2021/10/10 08:39:47;;;;;;;17.43;14.07;;;9.60;99.90;;;;;;5117461;28;20476;-69
2021/10/10 08:42:15;;;;;;;18.60;13.87;;;9.70;99.90;;;;;;5117138;28;20454;-69
2021/10/10 08:44:46;;;;;;;22.83;15.37;;;9.80;99.90;;;;;;5117485;28;20490;-69
2021/10/10 08:47:16;;;;;;;19.07;14.13;;;9.90;99.90;;;;;;5117090;28;20490;-69
2021/10/10 08:49:45;;;;;;;23.00;15.27;;;10.00;99.90;;;;;;5117288;28;20494;-69
2021/10/10 08:52:14;;;;;;;19.90;14.37;;;10.10;99.90;;;;;;5117143;28;20521;-69
2021/10/10 08:54:41;;;;;;;20.00;13.53;;;10.20;99.90;;;;;;5116915;28;20451;-69
2021/10/10 08:57:09;;;;;;;20.20;13.87;;;10.30;99.90;;;;;;5116838;28;20529;-69
2021/10/10 08:59:39;;;;;;;22.60;13.50;;;10.40;99.90;;;;;;5117062;28;20488;-69
2021/10/10 09:02:10;;;;;;;19.77;14.03;;;10.50;99.90;;;;;;5116995;28;20513;-69
2021/10/10 09:04:40;;;;;;;16.93;13.67;;;10.60;99.90;;;;;;5116754;28;20475;-69
2021/10/10 09:07:08;;;;;;;19.77;12.83;;;10.70;99.90;;;;;;5116772;28;20892;-70
2021/10/10 09:09:36;;;;;;;20.47;14.07;;;10.90;99.90;;;;;;5116964;28;20800;-70
2021/10/10 09:12:05;;;;;;;20.00;12.73;;;11.00;99.90;;;;;;5116692;28;20517;-69
2021/10/10 09:14:43;;;;;;;16.30;12.90;;;11.00;99.90;;;;;;5117079;28;20454;-69
2021/10/10 09:17:14;;;;;;;19.30;12.53;;;11.10;99.90;;;;;;5116400;28;20865;-69
2021/10/10 09:19:47;;;;;;;19.03;13.30;;;11.20;99.90;;;;;;5116945;28;20755;-69
2021/10/10 09:22:15;;;;;;;16.90;13.23;;;11.30;99.90;;;;;;5116570;28;20444;-69
2021/10/10 09:24:42;;;;;;;18.23;12.47;;;11.40;99.90;;;;;;5117889;28;20490;-69
2021/10/10 09:27:12;;;;;;;18.67;13.60;;;11.50;99.90;;;;;;5116122;28;20925;-69
2021/10/10 09:29:41;;;;;;;16.13;12.00;;;11.70;99.90;;;;;;5116132;28;20457;-69
2021/10/10 09:32:13;;;;;;;16.30;12.37;;;11.70;99.90;;;;;;5116453;28;20460;-69
2021/10/10 09:34:41;;;;;;;17.53;12.33;;;11.80;99.90;;;;;;5115968;28;20447;-69
2021/10/10 09:37:11;;;;;;;14.50;10.97;;;11.90;99.90;;;;;;5116007;28;20556;-69
2021/10/10 09:39:43;;;;;;;16.43;11.37;;;11.90;99.90;;;;;;5116060;28;20456;-69
2021/10/10 09:42:10;;;;;;;16.80;11.10;;;12.00;99.90;;;;;;5116109;28;20469;-69
2021/10/10 09:44:46;;;;;;;15.97;9.90;;;12.10;99.90;;;;;;5115854;28;20477;-69
2021/10/10 09:47:16;;;;;;;15.17;10.90;;;12.20;99.90;;;;;;5115993;28;20888;-69
2021/10/10 09:49:43;;;;;;;14.20;10.00;;;12.20;99.90;;;;;;5115651;28;20622;-69
2021/10/10 09:52:15;;;;;;;12.97;9.70;;;12.20;99.90;;;;;;5115703;28;20464;-69
2021/10/10 09:54:51;;;;;;;12.10;9.60;;;12.20;99.90;;;;;;5115253;27;20437;-69
2021/10/10 09:57:18;;;;;;;12.60;8.60;;;12.20;99.90;;;;;;5116407;28;20468;-69
2021/10/10 09:59:45;;;;;;;14.00;9.10;;;12.20;99.90;;;;;;5115993;28;20464;-68
2021/10/10 10:02:12;;;;;;;14.20;9.47;;;12.30;99.90;;;;;;5115591;28;20459;-69
2021/10/10 10:04:47;;;;;;;12.30;9.37;;;12.20;99.90;;;;;;5116002;28;20501;-69
2021/10/10 10:07:15;;;;;;;10.50;8.80;;;12.30;99.90;;;;;;5116199;28;20452;-69
2021/10/10 10:09:42;;;;;;;12.90;8.63;;;12.30;99.90;;;;;;5116419;28;20459;-69
2021/10/10 10:12:10;;;;;;;11.57;8.80;;;12.30;99.90;;;;;;5115775;28;20476;-69
2021/10/10 10:14:38;;;;;;;11.90;8.77;;;12.40;99.90;;;;;;5115834;28;20453;-69
2021/10/10 10:17:06;;;;;;;12.10;7.77;;;12.50;99.90;;;;;;5115755;28;20460;-69
2021/10/10 10:19:35;;;;;;;13.00;8.30;;;12.60;99.90;;;;;;5115899;28;20502;-69
2021/10/10 10:22:02;;;;;;;12.47;8.23;;;12.80;99.90;;;;;;5115620;28;20934;-69
2021/10/10 10:24:31;;;;;;;11.10;7.73;;;12.90;99.90;;;;;;5116408;28;20491;-69
2021/10/10 10:26:59;;;;;;;10.97;7.57;;;13.00;99.90;;;;;;5116004;28;20492;-69
2021/10/10 10:29:30;;;;;;;12.27;8.07;;;13.20;99.90;;;;;;5115330;28;20468;-69
2021/10/10 10:31:58;;;;;;;10.43;8.43;;;13.30;99.90;;;;;;5116009;28;20479;-69
2021/10/10 10:34:28;;;;;;;9.50;6.93;;;13.30;99.90;;;;;;5116036;28;20515;-69
2021/10/10 10:36:59;;;;;;;14.57;8.40;;;13.30;99.90;;;;;;5117033;28;20544;-69
2021/10/10 10:39:43;;;;;;;9.23;7.00;;;13.30;99.90;;;;;;5119388;28;20485;-69
2021/10/10 10:42:11;;;;;;;9.57;7.10;;;13.40;99.90;;;;;;5123273;28;20431;-68
2021/10/10 10:44:44;;;;;;;10.50;7.70;;;13.40;99.90;;;;;;5124094;28;20759;-69
2021/10/10 10:47:12;;;;;;;8.70;6.90;;;13.40;99.90;;;;;;5123171;28;20468;-69
2021/10/10 10:50:00;;;;;;;9.83;6.87;;;13.50;99.90;;;;;;5123581;28;20843;-69
2021/10/10 10:52:30;;;;;;;10.73;7.27;;;13.60;99.90;;;;;;5122248;28;20511;-69
2021/10/10 10:54:59;;;;;;;11.37;7.10;;;13.60;99.90;;;;;;5120629;28;20449;-69
2021/10/10 10:57:30;;;;;;;9.40;7.90;;;13.60;99.90;;;;;;5117117;28;20482;-69
2021/10/10 11:00:09;;;;;;;12.10;7.23;;;13.70;99.90;;;;;;5115794;28;20449;-69
2021/10/10 11:03:10;;;;;;;13.30;8.13;;;13.80;99.90;;;;;;5115195;28;20449;-68
2021/10/10 11:05:40;;;;;;;10.80;7.30;;;13.90;99.90;;;;;;5114152;28;20476;-69
2021/10/10 11:08:09;;;;;;;9.90;7.30;;;14.00;99.90;;;;;;5119757;28;20514;-69
2021/10/10 11:10:37;;;;;;;8.00;7.03;;;14.00;99.90;;;;;;5120649;28;20521;-68
2021/10/10 11:13:26;;;;;;;12.43;8.00;;;14.00;99.90;;;;;;5120835;28;20559;-70
2021/10/10 11:15:55;;;;;;;12.97;7.23;;;14.10;99.90;;;;;;5120092;28;20436;-69
2021/10/10 11:18:26;;;;;;;9.23;7.27;;;14.20;99.90;;;;;;5119360;28;20809;-69
2021/10/10 11:20:55;;;;;;;10.20;7.70;;;14.20;99.90;;;;;;5119495;28;20440;-69
2021/10/10 11:23:23;;;;;;;10.50;7.00;;;14.20;99.90;;;;;;5119517;28;20452;-70
2021/10/10 11:25:51;;;;;;;12.47;7.60;;;14.30;99.90;;;;;;5118545;28;20510;-70
2021/10/10 11:28:19;;;;;;;10.77;8.10;;;14.40;99.90;;;;;;5118861;28;20461;-69
2021/10/10 11:30:48;;;;;;;8.10;6.80;;;14.60;99.90;;;;;;5118547;28;20484;-68
2021/10/10 11:33:16;;;;;;;10.03;8.00;;;14.70;99.90;;;;;;5118135;28;20766;-70
2021/10/10 11:35:45;;;;;;;10.00;7.57;;;14.80;99.90;;;;;;5118724;28;20448;-69
2021/10/10 11:38:14;;;;;;;14.67;9.10;;;15.00;99.90;;;;;;5118527;28;20539;-69
2021/10/10 11:41:03;;;;;;;12.10;7.60;;;15.20;99.90;;;;;;5118030;28;20453;-68
2021/10/10 11:43:30;;;;;;;9.70;7.60;;;15.50;99.90;;;;;;5118644;28;20469;-68
2021/10/10 11:45:58;;;;;;;8.20;6.20;;;15.80;99.90;;;;;;5118593;28;20503;-68
2021/10/10 11:48:36;;;;;;;7.60;6.10;;;16.30;99.90;;;;;;5118360;28;20571;-69
2021/10/10 11:51:03;;;;;;;7.43;5.50;;;16.60;94.00;;;;;;5118313;28;20456;-69
2021/10/10 11:53:43;;;;;;;8.37;6.70;;;17.00;94.80;;;;;;5117972;28;20834;-69
2021/10/10 11:56:10;;;;;;;10.93;5.67;;;17.70;95.50;;;;;;5118009;28;20534;-69
2021/10/10 11:58:37;;;;;;;10.13;5.73;;;18.90;93.30;;;;;;5118493;28;20795;-69
2021/10/10 12:01:10;;;;;;;6.83;4.57;;;20.30;90.00;;;;;;5117438;28;21015;-69
2021/10/10 12:03:45;;;;;;;12.30;8.00;;;22.00;82.10;;;;;;5117855;28;20453;-69
2021/10/10 12:06:20;;;;;;;6.90;6.20;;;23.50;71.60;;;;;;5117524;28;20460;-69
2021/10/10 12:08:47;;;;;;;6.40;5.00;;;24.80;57.90;;;;;;5117433;28;20452;-69
2021/10/10 12:11:15;;;;;;;8.63;5.97;;;25.30;50.30;;;;;;5117680;28;20457;-69
2021/10/10 12:13:55;;;;;;;8.47;5.70;;;25.60;47.00;;;;;;5117924;28;20457;-68
2021/10/10 12:16:22;;;;;;;6.40;5.73;;;25.90;44.20;;;;;;5117322;28;20455;-69
2021/10/10 12:18:55;;;;;;;7.00;5.70;;;25.70;43.70;;;;;;5117396;28;20452;-69
2021/10/10 12:21:26;;;;;;;6.37;5.57;;;25.80;42.80;;;;;;5117917;28;20451;-69
2021/10/10 12:24:07;;;;;;;7.13;5.53;;;26.30;43.30;;;;;;5118019;28;20472;-69
2021/10/10 12:26:48;;;;;;;5.87;5.13;;;26.80;41.50;;;;;;5117842;28;20557;-68
2021/10/10 12:29:26;;;;;;;7.87;5.87;;;27.40;40.00;;;;;;5117591;28;20579;-69
2021/10/10 12:31:53;;;;;;;7.37;6.13;;;28.00;40.20;;;;;;5117553;28;20486;-69
2021/10/10 12:34:29;;;;;;;7.00;6.13;;;28.70;39.60;;;;;;5117674;28;20787;-69
2021/10/10 12:36:56;;;;;;;13.97;9.20;;;29.50;39.10;;;;;;5117721;28;20502;-69
2021/10/10 12:39:40;;;;;;;21.20;15.10;;;29.90;36.50;;;;;;5117473;28;20920;-69
2021/10/10 12:42:07;;;;;;;7.13;5.70;;;29.90;36.00;;;;;;5117282;28;20468;-69
2021/10/10 12:44:34;;;;;;;10.50;5.83;;;30.40;35.80;;;;;;5116939;28;20457;-69